Terminal Aerodrome Forecast
Issued by NWS Buffalo, NY

Home | Current Version | Previous Version | Text Only | Print | Product List | Glossary On
Versions: 1 2 3 4 5 6 7 8 9 10 11 12 13 14 15 16 17 18 19 20 21 22 23 24 25 26 27 28 29
000
FTUS41 KBUF 231100
TAFART
TAF
KART 231120Z 2312/2412 34011KT P6SM VCSH OVC020
     FM231400 33013KT 6SM -SHRA OVC020
     FM231800 33014KT P6SM OVC025
     FM232100 33017KT P6SM SCT035
     FM240100 32012KT P6SM SKC
     FM240400 32009KT P6SM SKC=

USA.gov is the U.S. government's official web portal to all federal, state and local government web resources and services.